sensor_id;sensor_type;location;lat;lon;timestamp;temperature;humidity
6690;DHT22;3382;51.576;8.076;2022-12-29T00:02:14;12.60;99.90
6690;DHT22;3382;51.576;8.076;2022-12-29T00:04:40;12.60;99.90
6690;DHT22;3382;51.576;8.076;2022-12-29T00:07:06;12.60;99.90
6690;DHT22;3382;51.576;8.076;2022-12-29T00:09:33;12.60;99.90
6690;DHT22;3382;51.576;8.076;2022-12-29T00:11:59;12.60;99.90
6690;DHT22;3382;51.576;8.076;2022-12-29T00:14:26;12.60;99.90
6690;DHT22;3382;51.576;8.076;2022-12-29T00:17:10;12.70;99.90
6690;DHT22;3382;51.576;8.076;2022-12-29T00:19:36;12.70;99.90
6690;DHT22;3382;51.576;8.076;2022-12-29T00:22:20;12.70;99.90
6690;DHT22;3382;51.576;8.076;2022-12-29T00:25:05;12.70;99.90
6690;DHT22;3382;51.576;8.076;2022-12-29T00:27:49;12.70;99.90
6690;DHT22;3382;51.576;8.076;2022-12-29T00:30:33;12.90;99.90
6690;DHT22;3382;51.576;8.076;2022-12-29T00:33:21;12.80;99.90
6690;DHT22;3382;51.576;8.076;2022-12-29T00:36:13;12.80;99.90
6690;DHT22;3382;51.576;8.076;2022-12-29T00:38:55;12.70;99.90
6690;DHT22;3382;51.576;8.076;2022-12-29T00:41:41;12.70;99.90
6690;DHT22;3382;51.576;8.076;2022-12-29T00:44:25;12.80;99.90
6690;DHT22;3382;51.576;8.076;2022-12-29T00:46:51;12.80;99.90
6690;DHT22;3382;51.576;8.076;2022-12-29T00:49:16;12.90;99.90
6690;DHT22;3382;51.576;8.076;2022-12-29T00:52:03;12.80;99.90
6690;DHT22;3382;51.576;8.076;2022-12-29T00:54:31;13.00;99.90
6690;DHT22;3382;51.576;8.076;2022-12-29T00:56:57;12.90;99.90
6690;DHT22;3382;51.576;8.076;2022-12-29T00:59:23;12.90;99.90
6690;DHT22;3382;51.576;8.076;2022-12-29T01:01:49;12.90;99.90
6690;DHT22;3382;51.576;8.076;2022-12-29T01:04:15;12.90;99.90
6690;DHT22;3382;51.576;8.076;2022-12-29T01:06:41;12.90;99.90
6690;DHT22;3382;51.576;8.076;2022-12-29T01:09:08;13.00;99.90
6690;DHT22;3382;51.576;8.076;2022-12-29T01:11:53;13.00;99.90
6690;DHT22;3382;51.576;8.076;2022-12-29T01:14:19;13.00;99.90
6690;DHT22;3382;51.576;8.076;2022-12-29T01:16:45;13.10;99.90
6690;DHT22;3382;51.576;8.076;2022-12-29T01:19:12;13.00;99.90
6690;DHT22;3382;51.576;8.076;2022-12-29T01:21:37;13.10;99.90
6690;DHT22;3382;51.576;8.076;2022-12-29T01:24:03;13.10;99.90
6690;DHT22;3382;51.576;8.076;2022-12-29T01:26:28;13.10;99.90
6690;DHT22;3382;51.576;8.076;2022-12-29T01:28:54;13.10;99.90
6690;DHT22;3382;51.576;8.076;2022-12-29T01:31:20;13.20;99.90
6690;DHT22;3382;51.576;8.076;2022-12-29T01:33:45;13.50;99.90
6690;DHT22;3382;51.576;8.076;2022-12-29T01:36:13;13.40;99.90
6690;DHT22;3382;51.576;8.076;2022-12-29T01:38:41;13.30;99.90
6690;DHT22;3382;51.576;8.076;2022-12-29T01:41:08;13.30;99.90
6690;DHT22;3382;51.576;8.076;2022-12-29T01:51:35;13.30;99.90
6690;DHT22;3382;51.576;8.076;2022-12-29T01:54:05;13.30;99.90
6690;DHT22;3382;51.576;8.076;2022-12-29T01:56:33;13.40;99.90
6690;DHT22;3382;51.576;8.076;2022-12-29T01:59:06;13.40;99.90
6690;DHT22;3382;51.576;8.076;2022-12-29T02:01:34;13.40;99.90
6690;DHT22;3382;51.576;8.076;2022-12-29T02:04:00;13.50;99.90
6690;DHT22;3382;51.576;8.076;2022-12-29T02:06:29;13.50;99.90
6690;DHT22;3382;51.576;8.076;2022-12-29T02:08:56;13.50;99.90
6690;DHT22;3382;51.576;8.076;2022-12-29T02:11:24;13.50;99.90
6690;DHT22;3382;51.576;8.076;2022-12-29T02:13:51;13.50;99.90
6690;DHT22;3382;51.576;8.076;2022-12-29T02:30:38;13.50;99.90
6690;DHT22;3382;51.576;8.076;2022-12-29T02:33:17;13.50;99.90
6690;DHT22;3382;51.576;8.076;2022-12-29T02:36:05;13.50;99.90
6690;DHT22;3382;51.576;8.076;2022-12-29T02:38:56;13.40;99.90
6690;DHT22;3382;51.576;8.076;2022-12-29T02:44:39;13.30;99.90
6690;DHT22;3382;51.576;8.076;2022-12-29T02:47:29;13.40;99.90
6690;DHT22;3382;51.576;8.076;2022-12-29T02:53:05;13.40;99.90
6690;DHT22;3382;51.576;8.076;2022-12-29T02:55:32;13.40;99.90
6690;DHT22;3382;51.576;8.076;2022-12-29T02:58:19;13.40;99.90
6690;DHT22;3382;51.576;8.076;2022-12-29T03:01:16;13.40;99.90
6690;DHT22;3382;51.576;8.076;2022-12-29T03:07:04;13.50;99.90
6690;DHT22;3382;51.576;8.076;2022-12-29T03:10:03;13.50;99.90
6690;DHT22;3382;51.576;8.076;2022-12-29T03:12:58;13.40;99.90
6690;DHT22;3382;51.576;8.076;2022-12-29T03:21:11;13.40;99.90
6690;DHT22;3382;51.576;8.076;2022-12-29T03:23:37;13.40;99.90
6690;DHT22;3382;51.576;8.076;2022-12-29T03:26:08;13.50;99.90
6690;DHT22;3382;51.576;8.076;2022-12-29T03:28:53;13.50;99.90
6690;DHT22;3382;51.576;8.076;2022-12-29T03:31:21;13.40;99.90
6690;DHT22;3382;51.576;8.076;2022-12-29T03:33:48;13.40;99.90
6690;DHT22;3382;51.576;8.076;2022-12-29T03:36:29;13.40;99.90
6690;DHT22;3382;51.576;8.076;2022-12-29T03:39:02;13.50;99.90
6690;DHT22;3382;51.576;8.076;2022-12-29T03:41:31;13.50;99.90
6690;DHT22;3382;51.576;8.076;2022-12-29T03:43:57;13.50;99.90
6690;DHT22;3382;51.576;8.076;2022-12-29T03:46:23;13.40;99.90
6690;DHT22;3382;51.576;8.076;2022-12-29T03:48:48;13.50;99.90
6690;DHT22;3382;51.576;8.076;2022-12-29T03:51:14;13.50;99.90
6690;DHT22;3382;51.576;8.076;2022-12-29T03:53:39;13.40;99.90
6690;DHT22;3382;51.576;8.076;2022-12-29T03:56:05;13.40;99.90
6690;DHT22;3382;51.576;8.076;2022-12-29T03:58:31;13.50;99.90
6690;DHT22;3382;51.576;8.076;2022-12-29T04:00:56;13.60;99.90
6690;DHT22;3382;51.576;8.076;2022-12-29T04:03:22;13.60;99.90
6690;DHT22;3382;51.576;8.076;2022-12-29T04:05:48;13.60;99.90
6690;DHT22;3382;51.576;8.076;2022-12-29T04:08:13;13.60;99.90
6690;DHT22;3382;51.576;8.076;2022-12-29T04:10:39;13.60;99.90
6690;DHT22;3382;51.576;8.076;2022-12-29T04:13:05;13.70;99.90
6690;DHT22;3382;51.576;8.076;2022-12-29T04:15:30;13.80;99.90
6690;DHT22;3382;51.576;8.076;2022-12-29T04:17:56;13.70;99.90
6690;DHT22;3382;51.576;8.076;2022-12-29T04:20:21;13.70;99.90
6690;DHT22;3382;51.576;8.076;2022-12-29T04:23:06;13.70;99.90
6690;DHT22;3382;51.576;8.076;2022-12-29T04:25:33;13.80;99.90
6690;DHT22;3382;51.576;8.076;2022-12-29T04:27:58;13.70;99.90
6690;DHT22;3382;51.576;8.076;2022-12-29T04:30:24;13.70;99.90
6690;DHT22;3382;51.576;8.076;2022-12-29T04:32:50;13.70;99.90
6690;DHT22;3382;51.576;8.076;2022-12-29T04:35:15;13.60;99.90
6690;DHT22;3382;51.576;8.076;2022-12-29T04:37:41;13.60;99.90
6690;DHT22;3382;51.576;8.076;2022-12-29T04:40:07;13.60;99.90
6690;DHT22;3382;51.576;8.076;2022-12-29T04:42:33;13.50;99.90
6690;DHT22;3382;51.576;8.076;2022-12-29T04:44:59;13.50;99.90
6690;DHT22;3382;51.576;8.076;2022-12-29T04:47:24;13.50;99.90
6690;DHT22;3382;51.576;8.076;2022-12-29T04:49:50;13.50;99.90
6690;DHT22;3382;51.576;8.076;2022-12-29T04:52:16;13.50;99.90
6690;DHT22;3382;51.576;8.076;2022-12-29T04:54:41;13.50;99.90
6690;DHT22;3382;51.576;8.076;2022-12-29T04:57:07;13.50;99.90
6690;DHT22;3382;51.576;8.076;2022-12-29T04:59:32;13.40;99.90
6690;DHT22;3382;51.576;8.076;2022-12-29T05:01:58;13.40;99.90
6690;DHT22;3382;51.576;8.076;2022-12-29T05:04:23;13.40;99.90
6690;DHT22;3382;51.576;8.076;2022-12-29T05:06:49;13.40;99.90
6690;DHT22;3382;51.576;8.076;2022-12-29T05:09:15;13.40;99.90
6690;DHT22;3382;51.576;8.076;2022-12-29T05:11:40;13.40;99.90
6690;DHT22;3382;51.576;8.076;2022-12-29T05:14:06;13.30;99.90
6690;DHT22;3382;51.576;8.076;2022-12-29T05:16:31;13.30;99.90
6690;DHT22;3382;51.576;8.076;2022-12-29T05:18:57;13.30;99.90
6690;DHT22;3382;51.576;8.076;2022-12-29T05:21:23;13.20;99.90
6690;DHT22;3382;51.576;8.076;2022-12-29T05:23:48;13.30;99.90
6690;DHT22;3382;51.576;8.076;2022-12-29T05:26:14;13.30;99.90
6690;DHT22;3382;51.576;8.076;2022-12-29T05:28:39;13.30;99.90
6690;DHT22;3382;51.576;8.076;2022-12-29T05:31:05;13.50;99.90
6690;DHT22;3382;51.576;8.076;2022-12-29T05:33:31;13.30;99.90
6690;DHT22;3382;51.576;8.076;2022-12-29T05:35:56;13.40;99.90
6690;DHT22;3382;51.576;8.076;2022-12-29T05:38:22;13.40;99.90
6690;DHT22;3382;51.576;8.076;2022-12-29T05:40:47;13.40;99.90
6690;DHT22;3382;51.576;8.076;2022-12-29T05:43:13;13.40;99.90
6690;DHT22;3382;51.576;8.076;2022-12-29T05:45:38;13.40;99.90
6690;DHT22;3382;51.576;8.076;2022-12-29T05:48:04;13.50;99.90
6690;DHT22;3382;51.576;8.076;2022-12-29T05:50:30;13.50;99.90
6690;DHT22;3382;51.576;8.076;2022-12-29T05:52:55;13.70;99.90
6690;DHT22;3382;51.576;8.076;2022-12-29T05:55:21;13.90;99.90
6690;DHT22;3382;51.576;8.076;2022-12-29T05:57:47;13.90;99.90
6690;DHT22;3382;51.576;8.076;2022-12-29T06:00:13;13.90;99.90
6690;DHT22;3382;51.576;8.076;2022-12-29T06:02:39;14.00;99.90
6690;DHT22;3382;51.576;8.076;2022-12-29T06:05:05;13.90;99.90
6690;DHT22;3382;51.576;8.076;2022-12-29T06:07:31;14.00;99.90
6690;DHT22;3382;51.576;8.076;2022-12-29T06:09:56;14.00;99.90
6690;DHT22;3382;51.576;8.076;2022-12-29T06:12:22;14.00;99.90
6690;DHT22;3382;51.576;8.076;2022-12-29T06:14:47;14.00;99.90
6690;DHT22;3382;51.576;8.076;2022-12-29T06:17:13;14.00;99.90
6690;DHT22;3382;51.576;8.076;2022-12-29T06:19:39;14.00;99.90
6690;DHT22;3382;51.576;8.076;2022-12-29T06:22:04;14.00;99.90
6690;DHT22;3382;51.576;8.076;2022-12-29T06:24:30;14.00;99.90
6690;DHT22;3382;51.576;8.076;2022-12-29T06:26:56;14.20;99.90
6690;DHT22;3382;51.576;8.076;2022-12-29T06:29:21;14.40;99.90
6690;DHT22;3382;51.576;8.076;2022-12-29T06:31:47;14.40;99.90
6690;DHT22;3382;51.576;8.076;2022-12-29T06:34:14;14.50;99.90
6690;DHT22;3382;51.576;8.076;2022-12-29T06:36:40;14.40;99.90
6690;DHT22;3382;51.576;8.076;2022-12-29T06:39:06;14.40;99.90
6690;DHT22;3382;51.576;8.076;2022-12-29T06:41:31;14.40;99.90
6690;DHT22;3382;51.576;8.076;2022-12-29T06:43:57;14.30;99.90
6690;DHT22;3382;51.576;8.076;2022-12-29T06:46:23;14.40;99.90
6690;DHT22;3382;51.576;8.076;2022-12-29T06:48:48;14.50;99.90
6690;DHT22;3382;51.576;8.076;2022-12-29T06:51:14;14.40;99.90
6690;DHT22;3382;51.576;8.076;2022-12-29T06:53:39;14.30;99.90
6690;DHT22;3382;51.576;8.076;2022-12-29T06:56:05;14.20;99.90
6690;DHT22;3382;51.576;8.076;2022-12-29T06:58:31;14.10;99.90
6690;DHT22;3382;51.576;8.076;2022-12-29T07:00:57;14.00;99.90
6690;DHT22;3382;51.576;8.076;2022-12-29T07:03:23;14.10;99.90
6690;DHT22;3382;51.576;8.076;2022-12-29T07:05:49;14.10;99.90
6690;DHT22;3382;51.576;8.076;2022-12-29T07:08:14;14.20;99.90
6690;DHT22;3382;51.576;8.076;2022-12-29T07:10:40;14.20;99.90
6690;DHT22;3382;51.576;8.076;2022-12-29T07:13:06;14.30;99.90
6690;DHT22;3382;51.576;8.076;2022-12-29T07:15:36;14.30;99.90
6690;DHT22;3382;51.576;8.076;2022-12-29T07:18:02;14.50;99.90
6690;DHT22;3382;51.576;8.076;2022-12-29T07:20:29;14.40;99.90
6690;DHT22;3382;51.576;8.076;2022-12-29T07:22:55;14.60;99.90
6690;DHT22;3382;51.576;8.076;2022-12-29T07:25:20;14.60;99.90
6690;DHT22;3382;51.576;8.076;2022-12-29T07:27:46;14.70;99.90
6690;DHT22;3382;51.576;8.076;2022-12-29T07:30:12;14.70;99.90
6690;DHT22;3382;51.576;8.076;2022-12-29T07:32:38;14.80;99.90
6690;DHT22;3382;51.576;8.076;2022-12-29T07:35:03;15.00;99.90
6690;DHT22;3382;51.576;8.076;2022-12-29T07:37:29;15.20;99.90
6690;DHT22;3382;51.576;8.076;2022-12-29T07:39:55;15.30;99.90
6690;DHT22;3382;51.576;8.076;2022-12-29T07:42:20;15.30;99.90
6690;DHT22;3382;51.576;8.076;2022-12-29T07:44:46;15.80;99.90
6690;DHT22;3382;51.576;8.076;2022-12-29T07:47:12;16.70;99.90
6690;DHT22;3382;51.576;8.076;2022-12-29T07:49:37;17.20;99.90
6690;DHT22;3382;51.576;8.076;2022-12-29T07:52:03;17.50;99.90
6690;DHT22;3382;51.576;8.076;2022-12-29T07:54:28;17.80;99.90
6690;DHT22;3382;51.576;8.076;2022-12-29T07:56:54;18.20;99.90
6690;DHT22;3382;51.576;8.076;2022-12-29T07:59:20;18.60;99.90
6690;DHT22;3382;51.576;8.076;2022-12-29T08:01:45;19.00;99.90
6690;DHT22;3382;51.576;8.076;2022-12-29T08:04:11;19.20;99.90
6690;DHT22;3382;51.576;8.076;2022-12-29T08:06:37;19.60;99.90
6690;DHT22;3382;51.576;8.076;2022-12-29T08:09:03;19.90;99.90
6690;DHT22;3382;51.576;8.076;2022-12-29T08:11:29;20.20;99.90
6690;DHT22;3382;51.576;8.076;2022-12-29T08:13:55;20.40;99.90
6690;DHT22;3382;51.576;8.076;2022-12-29T08:16:20;20.60;99.90
6690;DHT22;3382;51.576;8.076;2022-12-29T08:18:46;20.70;99.90
6690;DHT22;3382;51.576;8.076;2022-12-29T08:21:11;20.80;99.90
6690;DHT22;3382;51.576;8.076;2022-12-29T08:23:37;20.80;99.90
6690;DHT22;3382;51.576;8.076;2022-12-29T08:26:04;20.80;99.90
6690;DHT22;3382;51.576;8.076;2022-12-29T08:28:31;20.80;99.90
6690;DHT22;3382;51.576;8.076;2022-12-29T08:30:58;20.80;99.90
6690;DHT22;3382;51.576;8.076;2022-12-29T08:33:24;20.90;99.90
6690;DHT22;3382;51.576;8.076;2022-12-29T08:35:50;21.00;99.90
6690;DHT22;3382;51.576;8.076;2022-12-29T08:38:16;21.10;99.90
6690;DHT22;3382;51.576;8.076;2022-12-29T08:40:43;21.20;99.90
6690;DHT22;3382;51.576;8.076;2022-12-29T08:43:08;21.20;99.90
6690;DHT22;3382;51.576;8.076;2022-12-29T08:45:34;21.20;99.90
6690;DHT22;3382;51.576;8.076;2022-12-29T08:48:00;21.20;99.90
6690;DHT22;3382;51.576;8.076;2022-12-29T08:50:25;21.30;99.90
6690;DHT22;3382;51.576;8.076;2022-12-29T08:52:51;21.30;99.90
6690;DHT22;3382;51.576;8.076;2022-12-29T08:55:16;21.30;99.90
6690;DHT22;3382;51.576;8.076;2022-12-29T08:57:42;21.30;99.90
6690;DHT22;3382;51.576;8.076;2022-12-29T09:00:08;21.40;99.90
6690;DHT22;3382;51.576;8.076;2022-12-29T09:02:34;21.40;99.90
6690;DHT22;3382;51.576;8.076;2022-12-29T09:04:59;21.40;99.90
6690;DHT22;3382;51.576;8.076;2022-12-29T09:07:26;21.50;99.90
6690;DHT22;3382;51.576;8.076;2022-12-29T09:09:52;21.60;99.90
6690;DHT22;3382;51.576;8.076;2022-12-29T09:12:17;21.40;99.90
6690;DHT22;3382;51.576;8.076;2022-12-29T09:14:43;21.50;99.90
6690;DHT22;3382;51.576;8.076;2022-12-29T09:17:11;21.50;99.90
6690;DHT22;3382;51.576;8.076;2022-12-29T09:19:55;21.60;99.90
6690;DHT22;3382;51.576;8.076;2022-12-29T09:22:21;21.60;99.90
6690;DHT22;3382;51.576;8.076;2022-12-29T09:24:46;21.60;99.90
6690;DHT22;3382;51.576;8.076;2022-12-29T09:27:12;21.60;99.90
6690;DHT22;3382;51.576;8.076;2022-12-29T09:29:37;21.60;99.90
6690;DHT22;3382;51.576;8.076;2022-12-29T09:32:03;21.70;99.90
6690;DHT22;3382;51.576;8.076;2022-12-29T09:34:29;21.70;99.90
6690;DHT22;3382;51.576;8.076;2022-12-29T09:36:55;21.70;99.90
6690;DHT22;3382;51.576;8.076;2022-12-29T09:39:22;21.70;99.90
6690;DHT22;3382;51.576;8.076;2022-12-29T09:41:52;21.60;99.90
6690;DHT22;3382;51.576;8.076;2022-12-29T09:46:56;21.60;99.90
6690;DHT22;3382;51.576;8.076;2022-12-29T09:51:54;21.40;99.90
6690;DHT22;3382;51.576;8.076;2022-12-29T09:57:00;21.50;99.90
6690;DHT22;3382;51.576;8.076;2022-12-29T09:59:35;21.50;99.90
6690;DHT22;3382;51.576;8.076;2022-12-29T10:04:57;21.60;99.90
6690;DHT22;3382;51.576;8.076;2022-12-29T10:10:04;21.60;99.90
6690;DHT22;3382;51.576;8.076;2022-12-29T10:15:25;22.10;99.90
6690;DHT22;3382;51.576;8.076;2022-12-29T10:18:09;21.90;99.90
6690;DHT22;3382;51.576;8.076;2022-12-29T10:20:52;21.90;99.90
6690;DHT22;3382;51.576;8.076;2022-12-29T10:23:31;21.80;99.90
6690;DHT22;3382;51.576;8.076;2022-12-29T10:25:59;21.90;99.90
6690;DHT22;3382;51.576;8.076;2022-12-29T10:28:42;21.90;99.90
6690;DHT22;3382;51.576;8.076;2022-12-29T10:31:16;21.90;99.90
6690;DHT22;3382;51.576;8.076;2022-12-29T10:33:46;21.90;99.90
6690;DHT22;3382;51.576;8.076;2022-12-29T10:36:41;21.90;99.90
6690;DHT22;3382;51.576;8.076;2022-12-29T10:41:55;22.00;99.90
6690;DHT22;3382;51.576;8.076;2022-12-29T10:44:23;22.00;99.90
6690;DHT22;3382;51.576;8.076;2022-12-29T10:46:56;22.00;99.90
6690;DHT22;3382;51.576;8.076;2022-12-29T10:49:24;22.00;99.90
6690;DHT22;3382;51.576;8.076;2022-12-29T10:51:54;22.00;99.90
6690;DHT22;3382;51.576;8.076;2022-12-29T10:54:33;21.90;99.90
6690;DHT22;3382;51.576;8.076;2022-12-29T10:57:31;21.90;99.90
6690;DHT22;3382;51.576;8.076;2022-12-29T10:59:58;21.80;99.90
6690;DHT22;3382;51.576;8.076;2022-12-29T11:05:49;21.80;99.90
6690;DHT22;3382;51.576;8.076;2022-12-29T11:08:25;21.80;99.90
6690;DHT22;3382;51.576;8.076;2022-12-29T11:11:04;21.80;99.90
6690;DHT22;3382;51.576;8.076;2022-12-29T11:13:32;21.80;99.90
6690;DHT22;3382;51.576;8.076;2022-12-29T11:15:58;21.80;99.90
6690;DHT22;3382;51.576;8.076;2022-12-29T11:18:38;21.70;99.90
6690;DHT22;3382;51.576;8.076;2022-12-29T11:21:30;21.70;99.90
6690;DHT22;3382;51.576;8.076;2022-12-29T11:23:59;21.70;99.90
6690;DHT22;3382;51.576;8.076;2022-12-29T11:26:26;21.60;99.90
6690;DHT22;3382;51.576;8.076;2022-12-29T11:31:44;21.70;99.90
6690;DHT22;3382;51.576;8.076;2022-12-29T11:34:33;21.60;99.90
6690;DHT22;3382;51.576;8.076;2022-12-29T11:39:56;21.60;99.90
6690;DHT22;3382;51.576;8.076;2022-12-29T11:42:38;21.70;99.90
6690;DHT22;3382;51.576;8.076;2022-12-29T11:45:23;21.60;99.90
6690;DHT22;3382;51.576;8.076;2022-12-29T11:48:14;21.60;99.90
6690;DHT22;3382;51.576;8.076;2022-12-29T11:50:39;21.60;99.90
6690;DHT22;3382;51.576;8.076;2022-12-29T11:53:49;21.60;99.90
6690;DHT22;3382;51.576;8.076;2022-12-29T11:56:32;21.60;99.90
6690;DHT22;3382;51.576;8.076;2022-12-29T11:58:58;21.60;99.90
6690;DHT22;3382;51.576;8.076;2022-12-29T12:01:44;21.60;99.90
6690;DHT22;3382;51.576;8.076;2022-12-29T12:04:15;21.60;99.90
6690;DHT22;3382;51.576;8.076;2022-12-29T12:07:00;21.60;99.90
6690;DHT22;3382;51.576;8.076;2022-12-29T12:09:32;21.60;99.90
6690;DHT22;3382;51.576;8.076;2022-12-29T12:12:01;21.60;99.90
6690;DHT22;3382;51.576;8.076;2022-12-29T12:14:34;21.60;99.90
6690;DHT22;3382;51.576;8.076;2022-12-29T12:17:10;22.10;99.90
6690;DHT22;3382;51.576;8.076;2022-12-29T12:19:54;22.30;99.90
6690;DHT22;3382;51.576;8.076;2022-12-29T12:22:31;22.30;99.90
6690;DHT22;3382;51.576;8.076;2022-12-29T12:25:23;22.40;99.90
6690;DHT22;3382;51.576;8.076;2022-12-29T12:27:56;22.30;99.90
6690;DHT22;3382;51.576;8.076;2022-12-29T12:30:24;22.30;99.90
6690;DHT22;3382;51.576;8.076;2022-12-29T12:35:40;22.20;99.90
6690;DHT22;3382;51.576;8.076;2022-12-29T12:38:23;21.00;99.90
6690;DHT22;3382;51.576;8.076;2022-12-29T12:43:47;19.20;99.90
6690;DHT22;3382;51.576;8.076;2022-12-29T12:46:19;18.70;99.90
6690;DHT22;3382;51.576;8.076;2022-12-29T12:51:58;20.90;99.90
6690;DHT22;3382;51.576;8.076;2022-12-29T12:57:40;21.40;99.90
6690;DHT22;3382;51.576;8.076;2022-12-29T13:00:16;21.50;99.90
6690;DHT22;3382;51.576;8.076;2022-12-29T13:06:02;21.60;99.90
6690;DHT22;3382;51.576;8.076;2022-12-29T13:17:04;21.70;99.90
6690;DHT22;3382;51.576;8.076;2022-12-29T13:27:39;21.70;99.90
6690;DHT22;3382;51.576;8.076;2022-12-29T13:30:18;21.70;99.90
6690;DHT22;3382;51.576;8.076;2022-12-29T13:33:14;21.70;99.90
6690;DHT22;3382;51.576;8.076;2022-12-29T13:36:02;21.60;99.90
6690;DHT22;3382;51.576;8.076;2022-12-29T13:41:04;21.60;99.90
6690;DHT22;3382;51.576;8.076;2022-12-29T13:43:33;21.60;99.90
6690;DHT22;3382;51.576;8.076;2022-12-29T13:46:19;21.70;99.90
6690;DHT22;3382;51.576;8.076;2022-12-29T13:48:51;21.70;99.90
6690;DHT22;3382;51.576;8.076;2022-12-29T13:51:20;21.80;99.90
6690;DHT22;3382;51.576;8.076;2022-12-29T13:54:12;21.80;99.90
6690;DHT22;3382;51.576;8.076;2022-12-29T14:02:25;21.90;99.90
6690;DHT22;3382;51.576;8.076;2022-12-29T14:05:01;21.80;99.90
6690;DHT22;3382;51.576;8.076;2022-12-29T14:07:28;21.70;99.90
6690;DHT22;3382;51.576;8.076;2022-12-29T14:09:55;21.60;99.90
6690;DHT22;3382;51.576;8.076;2022-12-29T14:12:35;21.60;99.90
6690;DHT22;3382;51.576;8.076;2022-12-29T14:15:06;21.60;99.90
6690;DHT22;3382;51.576;8.076;2022-12-29T14:17:40;21.60;99.90
6690;DHT22;3382;51.576;8.076;2022-12-29T14:20:16;21.60;99.90
6690;DHT22;3382;51.576;8.076;2022-12-29T14:26:00;21.70;99.90
6690;DHT22;3382;51.576;8.076;2022-12-29T14:28:43;21.70;99.90
6690;DHT22;3382;51.576;8.076;2022-12-29T14:36:36;21.70;99.90
6690;DHT22;3382;51.576;8.076;2022-12-29T14:39:04;21.70;99.90
6690;DHT22;3382;51.576;8.076;2022-12-29T14:41:35;21.70;99.90
6690;DHT22;3382;51.576;8.076;2022-12-29T14:49:23;21.80;99.90
6690;DHT22;3382;51.576;8.076;2022-12-29T14:51:53;21.70;99.90
6690;DHT22;3382;51.576;8.076;2022-12-29T14:57:19;21.70;99.90
6690;DHT22;3382;51.576;8.076;2022-12-29T14:59:46;21.70;99.90
6690;DHT22;3382;51.576;8.076;2022-12-29T15:02:17;21.60;99.90
6690;DHT22;3382;51.576;8.076;2022-12-29T15:04:44;21.60;99.90
6690;DHT22;3382;51.576;8.076;2022-12-29T15:07:12;21.60;99.90
6690;DHT22;3382;51.576;8.076;2022-12-29T15:10:03;21.60;99.90
6690;DHT22;3382;51.576;8.076;2022-12-29T15:12:38;21.60;99.90
6690;DHT22;3382;51.576;8.076;2022-12-29T15:15:25;21.60;99.90
6690;DHT22;3382;51.576;8.076;2022-12-29T15:17:51;21.60;99.90
6690;DHT22;3382;51.576;8.076;2022-12-29T15:20:24;21.60;99.90
6690;DHT22;3382;51.576;8.076;2022-12-29T15:22:59;21.70;99.90
6690;DHT22;3382;51.576;8.076;2022-12-29T15:25:25;21.70;99.90
6690;DHT22;3382;51.576;8.076;2022-12-29T15:28:03;21.70;99.90
6690;DHT22;3382;51.576;8.076;2022-12-29T15:30:30;21.60;99.90
6690;DHT22;3382;51.576;8.076;2022-12-29T15:32:56;21.60;99.90
6690;DHT22;3382;51.576;8.076;2022-12-29T15:35:34;21.60;99.90
6690;DHT22;3382;51.576;8.076;2022-12-29T15:38:00;21.60;99.90
6690;DHT22;3382;51.576;8.076;2022-12-29T15:40:37;21.60;99.90
6690;DHT22;3382;51.576;8.076;2022-12-29T15:45:47;21.20;99.90
6690;DHT22;3382;51.576;8.076;2022-12-29T15:48:18;20.20;99.90
6690;DHT22;3382;51.576;8.076;2022-12-29T15:50:45;19.50;99.90
6690;DHT22;3382;51.576;8.076;2022-12-29T15:53:18;18.90;99.90
6690;DHT22;3382;51.576;8.076;2022-12-29T15:55:45;18.70;99.90
6690;DHT22;3382;51.576;8.076;2022-12-29T15:58:24;18.40;99.90
6690;DHT22;3382;51.576;8.076;2022-12-29T16:00:55;18.20;99.90
6690;DHT22;3382;51.576;8.076;2022-12-29T16:03:23;18.00;99.90
6690;DHT22;3382;51.576;8.076;2022-12-29T16:05:55;17.80;99.90
6690;DHT22;3382;51.576;8.076;2022-12-29T16:08:31;18.10;99.90
6690;DHT22;3382;51.576;8.076;2022-12-29T16:11:05;18.50;99.90
6690;DHT22;3382;51.576;8.076;2022-12-29T16:13:34;18.10;99.90
6690;DHT22;3382;51.576;8.076;2022-12-29T16:16:12;17.60;99.90
6690;DHT22;3382;51.576;8.076;2022-12-29T16:18:42;17.20;99.90
6690;DHT22;3382;51.576;8.076;2022-12-29T16:21:28;16.60;99.90
6690;DHT22;3382;51.576;8.076;2022-12-29T16:23:58;16.40;99.90
6690;DHT22;3382;51.576;8.076;2022-12-29T16:26:25;16.20;99.90
6690;DHT22;3382;51.576;8.076;2022-12-29T16:28:55;15.80;99.90
6690;DHT22;3382;51.576;8.076;2022-12-29T16:33:54;15.20;99.90
6690;DHT22;3382;51.576;8.076;2022-12-29T16:36:23;14.90;99.90
6690;DHT22;3382;51.576;8.076;2022-12-29T16:38:48;14.90;99.90
6690;DHT22;3382;51.576;8.076;2022-12-29T16:41:29;14.80;99.90
6690;DHT22;3382;51.576;8.076;2022-12-29T16:49:39;14.90;99.90
6690;DHT22;3382;51.576;8.076;2022-12-29T16:52:13;14.80;99.90
6690;DHT22;3382;51.576;8.076;2022-12-29T16:54:49;14.80;99.90
6690;DHT22;3382;51.576;8.076;2022-12-29T16:57:30;15.10;99.90
6690;DHT22;3382;51.576;8.076;2022-12-29T16:59:59;15.30;99.90
6690;DHT22;3382;51.576;8.076;2022-12-29T17:02:28;15.60;99.90
6690;DHT22;3382;51.576;8.076;2022-12-29T17:04:54;16.30;99.90
6690;DHT22;3382;51.576;8.076;2022-12-29T17:07:25;17.00;99.90
6690;DHT22;3382;51.576;8.076;2022-12-29T17:09:51;16.70;99.90
6690;DHT22;3382;51.576;8.076;2022-12-29T17:12:26;16.70;99.90
6690;DHT22;3382;51.576;8.076;2022-12-29T17:17:46;16.80;99.90
6690;DHT22;3382;51.576;8.076;2022-12-29T17:20:24;16.80;99.90
6690;DHT22;3382;51.576;8.076;2022-12-29T17:22:51;16.70;99.90
6690;DHT22;3382;51.576;8.076;2022-12-29T17:25:26;16.30;99.90
6690;DHT22;3382;51.576;8.076;2022-12-29T17:28:04;16.10;99.90
6690;DHT22;3382;51.576;8.076;2022-12-29T17:30:33;15.70;99.90
6690;DHT22;3382;51.576;8.076;2022-12-29T17:33:06;15.40;99.90
6690;DHT22;3382;51.576;8.076;2022-12-29T17:35:35;15.10;99.90
6690;DHT22;3382;51.576;8.076;2022-12-29T17:38:00;14.90;99.90
6690;DHT22;3382;51.576;8.076;2022-12-29T17:40:29;14.70;99.90
6690;DHT22;3382;51.576;8.076;2022-12-29T17:42:57;14.70;99.90
6690;DHT22;3382;51.576;8.076;2022-12-29T17:45:25;14.70;99.90
6690;DHT22;3382;51.576;8.076;2022-12-29T17:47:51;14.60;99.90
6690;DHT22;3382;51.576;8.076;2022-12-29T17:50:20;14.60;99.90
6690;DHT22;3382;51.576;8.076;2022-12-29T17:52:59;14.30;99.90
6690;DHT22;3382;51.576;8.076;2022-12-29T17:55:26;14.40;99.90
6690;DHT22;3382;51.576;8.076;2022-12-29T17:57:51;14.60;99.90
6690;DHT22;3382;51.576;8.076;2022-12-29T18:00:21;14.60;99.90
6690;DHT22;3382;51.576;8.076;2022-12-29T18:02:47;14.70;99.90
6690;DHT22;3382;51.576;8.076;2022-12-29T18:05:22;15.00;99.90
6690;DHT22;3382;51.576;8.076;2022-12-29T18:07:50;14.80;99.90
6690;DHT22;3382;51.576;8.076;2022-12-29T18:10:16;14.80;99.90
6690;DHT22;3382;51.576;8.076;2022-12-29T18:12:44;14.80;99.90
6690;DHT22;3382;51.576;8.076;2022-12-29T18:17:45;14.70;99.90
6690;DHT22;3382;51.576;8.076;2022-12-29T18:20:11;14.80;99.90
6690;DHT22;3382;51.576;8.076;2022-12-29T18:22:36;15.30;99.90
6690;DHT22;3382;51.576;8.076;2022-12-29T18:25:09;15.60;99.90
6690;DHT22;3382;51.576;8.076;2022-12-29T18:27:37;16.10;99.90
6690;DHT22;3382;51.576;8.076;2022-12-29T18:30:03;15.90;99.90
6690;DHT22;3382;51.576;8.076;2022-12-29T18:32:29;16.30;99.90
6690;DHT22;3382;51.576;8.076;2022-12-29T18:34:54;16.70;99.90
6690;DHT22;3382;51.576;8.076;2022-12-29T18:37:20;16.60;99.90
6690;DHT22;3382;51.576;8.076;2022-12-29T18:39:46;16.50;99.90
6690;DHT22;3382;51.576;8.076;2022-12-29T18:42:15;16.70;99.90